Nordpanther — 5BDV4 — position and weather

sailwx.info

Track history (hours):
 
Tides and Currents Weather Stations Pressure Air Temp Water Temp Dewpoint Dewpoint Depression Visibility Wind Speed Wind Dir Waves Ship Positions

Nordpanther

Last reported at 2018-Feb-21 09:00 UTC. Time now 2018-Feb-21 09:08 UTC.
Position N 25°09' E 121°45'.

Length 170 m; draft 8.6 m.

Type: Ship (hazmat cat A). MMSI: 212531000.

Date/timePositionNaut miles runAvg speedWind from/ knotsBaromVisibWave heightAir tempDewpointWater temp
2018-Feb-21 09:00N 25°09' E 121°45'0 0.0
2018-Feb-21 08:30N 25°09' E 121°45'0 0.0
2018-Feb-21 08:00N 25°09' E 121°45'0 0.0
2018-Feb-21 07:30N 25°09' E 121°45'0 0.0
2018-Feb-21 07:00N 25°09' E 121°45'0 0.0
2018-Feb-21 06:30N 25°09' E 121°45'0 0.0
2018-Feb-21 06:00N 25°09' E 121°45'0 0.0
2018-Feb-21 05:30N 25°09' E 121°45'0 0.0
2018-Feb-21 05:00N 25°09' E 121°45'0 0.0
2018-Feb-21 04:30N 25°09' E 121°45'0 0.0
2018-Feb-21 04:00N 25°09' E 121°45'0 0.0
2018-Feb-21 03:31N 25°09' E 121°45'0 0.0
2018-Feb-21 03:00N 25°09' E 121°45'0 0.0
2018-Feb-21 02:30N 25°09' E 121°45'0 0.0
2018-Feb-21 02:00N 25°09' E 121°45'0 0.0
2018-Feb-21 01:30N 25°09' E 121°45'0 0.0
2018-Feb-21 01:00N 25°09' E 121°45'0 0.0
2018-Feb-21 00:31N 25°09' E 121°45'0 0.0
2018-Feb-21 00:00N 25°09' E 121°45'0 0.0
2018-Feb-20 23:31N 25°09' E 121°45'0 0.0
2018-Feb-20 23:00N 25°09' E 121°45'1 2.5
2018-Feb-20 22:31N 25°10' E 121°45'4 7.6
2018-Feb-20 21:59N 25°14' E 121°46'511.1
2018-Feb-20 21:30N 25°16' E 121°52'712.8
2018-Feb-20 21:00N 25°19' E 121°58'82716.6
2018-Feb-18 19:16N 33°31' E 134°42'1318.2
2018-Feb-18 18:32N 33°43' E 134°49'218.4
2018-Feb-18 18:25N 33°44' E 134°50'818.4
2018-Feb-18 18:00N 33°51' E 134°53'918.4
2018-Feb-18 17:30N 34°01' E 134°54'918.4
2018-Feb-18 17:00N 34°10' E 134°57'714.5
2018-Feb-18 16:30N 34°17' E 134°58'816.5
2018-Feb-18 16:00N 34°24' E 135°03'918.2
2018-Feb-18 15:31N 34°30' E 135°11'816.6
2018-Feb-18 15:00N 34°37' E 135°16'3 6.1
2018-Feb-18 14:30N 34°40' E 135°14'0 0.2
2018-Feb-18 14:00N 34°40' E 135°14'0 0.0
2018-Feb-18 13:30N 34°40' E 135°14'0 0.0
2018-Feb-18 13:00N 34°40' E 135°14'0 0.0
2018-Feb-18 12:30N 34°40' E 135°14'0 0.0
2018-Feb-18 12:00N 34°40' E 135°14'0 0.0
2018-Feb-18 11:30N 34°40' E 135°14'0 0.0
2018-Feb-18 11:00N 34°40' E 135°14'0 0.0
2018-Feb-18 10:30N 34°40' E 135°14'0 0.0
2018-Feb-18 10:00N 34°40' E 135°14'0 0.0
2018-Feb-18 09:30N 34°40' E 135°14'0 0.0
2018-Feb-18 09:00N 34°40' E 135°14'0 0.0
2018-Feb-18 08:30N 34°40' E 135°14'0 0.0
2018-Feb-18 08:00N 34°40' E 135°14'1 2.7
2018-Feb-18 07:30N 34°39' E 135°15'510.8
2018-Feb-18 07:00N 34°39' E 135°22'2 3.5
2018-Feb-18 06:30N 34°39' E 135°24'0 0.0
2018-Feb-18 06:01N 34°39' E 135°24'0 0.0
2018-Feb-18 05:31N 34°39' E 135°24'0 0.0
2018-Feb-18 05:00N 34°39' E 135°24'0 0.0
2018-Feb-18 04:31N 34°39' E 135°24'0 0.0
2018-Feb-18 04:00N 34°39' E 135°24'0 0.0
2018-Feb-18 03:30N 34°39' E 135°24'0 0.0
2018-Feb-18 03:00N 34°39' E 135°24'0 0.0
2018-Feb-18 02:30N 34°39' E 135°24'0 0.0
2018-Feb-18 02:00N 34°39' E 135°24'0 0.0
2018-Feb-18 01:31N 34°39' E 135°24'0 0.0
2018-Feb-18 01:01N 34°39' E 135°24'0 1.0
2018-Feb-18 00:31N 34°38' E 135°24'510.1
2018-Feb-18 00:00N 34°35' E 135°19'816.7
2018-Feb-17 23:30N 34°29' E 135°12'917.9
2018-Feb-17 23:01N 34°23' E 135°05'816.8
2018-Feb-17 22:30N 34°15' E 134°59'612.4
2018-Feb-17 22:00N 34°09' E 135°00'510.4
2018-Feb-17 21:31N 34°04' E 134°59'814.9
2018-Feb-17 21:00N 33°57' E 134°59'715.0
2018-Feb-17 20:30N 33°49' E 135°01'816.4
2018-Feb-17 20:00N 33°43' E 135°08'916.4
2018-Feb-17 19:29N 33°37' E 135°15'1117.0
2018-Feb-17 18:49N 33°29' E 135°24'5015.7
2018-Feb-17 15:37N 33°47' E 136°21'819.0
2018-Feb-17 15:12N 33°52' E 136°28'518.8
2018-Feb-17 14:56N 33°55' E 136°33'1118.5
2018-Feb-17 14:21N 34°02' E 136°43'3117.9
2018-Feb-17 12:36N 34°29' E 137°02'217.1
2018-Feb-17 12:30N 34°31' E 137°02'813.6
2018-Feb-17 11:54N 34°37' E 136°54'818.6
2018-Feb-17 11:27N 34°43' E 136°48'818.8
2018-Feb-17 11:00N 34°51' E 136°46'816.5
2018-Feb-17 10:31N 34°59' E 136°49'4 8.1
2018-Feb-17 10:01N 35°03' E 136°50'0 0.2
2018-Feb-17 09:29N 35°03' E 136°50'0 0.0
2018-Feb-17 08:59N 35°03' E 136°50'0 0.0
2018-Feb-17 08:29N 35°03' E 136°50'0 0.0
2018-Feb-17 07:59N 35°03' E 136°50'0 0.0
2018-Feb-17 07:29N 35°03' E 136°50'0 0.0
2018-Feb-17 06:59N 35°03' E 136°50'0 0.0
2018-Feb-17 06:29N 35°03' E 136°50'0 0.0
2018-Feb-17 05:59N 35°03' E 136°50'0 0.0
2018-Feb-17 05:29N 35°03' E 136°50'0 0.0
2018-Feb-17 04:59N 35°03' E 136°50'0 0.0
2018-Feb-17 04:29N 35°03' E 136°50'0 0.0
2018-Feb-17 03:59N 35°03' E 136°50'0 0.0
2018-Feb-17 03:29N 35°03' E 136°50'0 0.0
2018-Feb-17 02:59N 35°03' E 136°50'0 0.0
2018-Feb-17 02:29N 35°03' E 136°50'0 0.0
2018-Feb-17 01:59N 35°03' E 136°50'0 0.0
2018-Feb-17 01:29N 35°03' E 136°50'0 0.0
2018-Feb-17 00:59N 35°03' E 136°50'0 0.1
2018-Feb-17 00:29N 35°03' E 136°50'0 0.1
2018-Feb-16 23:59N 35°03' E 136°50'0 0.0
2018-Feb-16 23:29N 35°03' E 136°50'0 0.0
2018-Feb-16 23:00N 35°03' E 136°50'1 2.9
2018-Feb-16 22:31N 35°01' E 136°50'611.7
2018-Feb-16 22:00N 34°56' E 136°47'815.7
2018-Feb-16 21:30N 34°49' E 136°47'917.7
2018-Feb-16 21:00N 34°41' E 136°53'816.8
2018-Feb-16 20:30N 34°35' E 136°59'611.2
2018-Feb-16 19:59N 34°32' E 137°06'5 9.5
2018-Feb-16 19:28N 34°29' E 137°10'1217.1
2018-Feb-16 18:48N 34°29' E 137°24'718.9
2018-Feb-16 18:24N 34°30' E 137°33'819.4
2018-Feb-16 17:59N 34°31' E 137°43'1418.4
2018-Feb-16 17:12N 34°31' E 138°00'517.3
2018-Feb-16 16:56N 34°31' E 138°06'717.2
2018-Feb-16 16:29N 34°31' E 138°15'814.8
2018-Feb-16 15:58N 34°34' E 138°24'817.6
2018-Feb-16 15:30N 34°42' E 138°27'817.3
2018-Feb-16 15:01N 34°50' E 138°31'917.0
2018-Feb-16 14:31N 34°58' E 138°34'5 9.1
2018-Feb-16 14:01N 35°02' E 138°31'1 1.1
2018-Feb-16 13:28N 35°02' E 138°30'0 0.0
2018-Feb-16 12:58N 35°02' E 138°30'0 0.0
2018-Feb-16 12:28N 35°02' E 138°30'0 0.0
2018-Feb-16 11:58N 35°02' E 138°30'0 0.0
2018-Feb-16 11:28N 35°02' E 138°30'0 0.0
2018-Feb-16 10:58N 35°02' E 138°30'0 0.0
2018-Feb-16 10:28N 35°02' E 138°30'0 0.0
2018-Feb-16 09:58N 35°02' E 138°30'0 0.0
2018-Feb-16 09:28N 35°02' E 138°30'0 0.0
2018-Feb-16 08:58N 35°02' E 138°30'0 0.0
2018-Feb-16 08:28N 35°02' E 138°30'0 0.0
2018-Feb-16 07:58N 35°02' E 138°30'0 0.0
2018-Feb-16 07:28N 35°02' E 138°30'1 2.0
2018-Feb-16 07:00N 35°02' E 138°31'3 5.9
2018-Feb-16 06:30N 34°60' E 138°34'5 9.5
2018-Feb-16 06:00N 34°55' E 138°34'510.9
2018-Feb-16 05:30N 34°50' E 138°36'511.0
2018-Feb-16 05:00N 34°44' E 138°38'611.2
2018-Feb-16 04:30N 34°39' E 138°39'612.2
2018-Feb-16 04:01N 34°33' E 138°42'812.7
2018-Feb-16 03:25N 34°32' E 138°51'3215.1
2018-Feb-16 01:19N 34°53' E 139°20'515.4
2018-Feb-16 00:59N 34°55' E 139°25'715.4
2018-Feb-16 00:30N 34°59' E 139°33'816.0
2018-Feb-16 00:00N 35°04' E 139°40'815.7
2018-Feb-15 23:31N 35°11' E 139°45'612.2
2018-Feb-15 23:00N 35°17' E 139°45'612.6
2018-Feb-15 22:30N 35°23' E 139°42'714.9
2018-Feb-15 22:00N 35°28' E 139°48'611.7
2018-Feb-15 21:29N 35°34' E 139°49'4 8.5
2018-Feb-15 21:00N 35°37' E 139°46'0 0.0
2018-Feb-15 06:08N 35°37' E 139°46'0 0.3
2018-Feb-15 05:58N 35°37' E 139°46'2 4.6
2018-Feb-15 05:30N 35°35' E 139°47'510.0
2018-Feb-15 05:00N 35°32' E 139°52'1 2.5
2018-Feb-15 04:30N 35°31' E 139°52'4 8.8
2018-Feb-15 04:01N 35°27' E 139°49'510.8
2018-Feb-15 03:31N 35°26' E 139°42'1 2.0
2018-Feb-15 03:00N 35°26' E 139°41'0 0.0
2018-Feb-15 02:30N 35°26' E 139°41'0 0.0
2018-Feb-15 02:00N 35°26' E 139°41'0 0.0
2018-Feb-15 01:30N 35°26' E 139°41'0 0.0
2018-Feb-15 01:00N 35°26' E 139°41'0 0.0
2018-Feb-15 00:30N 35°26' E 139°41'0 0.0
2018-Feb-15 00:00N 35°26' E 139°41'0 0.0
2018-Feb-14 23:30N 35°26' E 139°41'0 0.0
2018-Feb-14 23:01N 35°26' E 139°41'0 0.0
2018-Feb-14 22:30N 35°26' E 139°41'0 0.0
2018-Feb-14 22:00N 35°26' E 139°41'0 0.0
2018-Feb-14 21:30N 35°26' E 139°41'0 0.0
2018-Feb-14 21:00N 35°26' E 139°41'0 0.0
2018-Feb-14 20:30N 35°26' E 139°41'0 0.0
2018-Feb-14 20:00N 35°26' E 139°41'0 0.0
2018-Feb-14 19:30N 35°26' E 139°41'0 0.0
2018-Feb-14 19:00N 35°26' E 139°41'0 0.0
2018-Feb-14 18:30N 35°26' E 139°41'0 0.0
2018-Feb-14 18:00N 35°26' E 139°41'0 0.0
2018-Feb-14 17:30N 35°26' E 139°41'0 0.0
2018-Feb-14 17:00N 35°26' E 139°41'0 0.0
2018-Feb-14 16:30N 35°26' E 139°41'0 0.0
2018-Feb-14 16:00N 35°26' E 139°41'0 0.0
2018-Feb-14 15:30N 35°26' E 139°41'0 0.0
2018-Feb-14 15:00N 35°26' E 139°41'0 0.0
2018-Feb-14 14:30N 35°26' E 139°41'0 0.0
2018-Feb-14 14:00N 35°26' E 139°41'0 0.0
2018-Feb-14 13:30N 35°26' E 139°41'0 0.0
2018-Feb-14 13:00N 35°26' E 139°41'1 1.4
2018-Feb-14 12:31N 35°27' E 139°42'5 9.8
2018-Feb-14 12:00N 35°22' E 139°43'612.5
2018-Feb-14 11:30N 35°16' E 139°46'510.7
2018-Feb-14 11:00N 35°11' E 139°47'510.0
2018-Feb-14 10:30N 35°06' E 139°46'510.8
2018-Feb-14 10:00N 35°02' E 139°41'1715.7
2018-Feb-14 08:56N 34°53' E 139°24'817.1
2018-Feb-14 08:28N 34°47' E 139°17'1216.4
2018-Feb-14 07:43N 34°37' E 139°09'316.8
2018-Feb-14 07:30N 34°34' E 139°07'815.5
2018-Feb-14 07:00N 34°28' E 139°01'  
2018-Feb-11 19:13N 25°28' E 122°10'315.0
2018-Feb-11 19:00N 25°27' E 122°07'714.6
2018-Feb-11 18:30N 25°22' E 122°00'815.2
2018-Feb-11 18:00N 25°18' E 121°54'815.9
2018-Feb-11 17:30N 25°13' E 121°47'5 9.9
2018-Feb-11 17:00N 25°08' E 121°45'0 0.2
2018-Feb-11 16:29N 25°08' E 121°45'0 0.0
2018-Feb-11 15:59N 25°08' E 121°45'0 0.0
2018-Feb-11 15:30N 25°08' E 121°45'0 0.0
2018-Feb-11 15:00N 25°08' E 121°45'0 0.0
2018-Feb-11 14:29N 25°08' E 121°45'0 0.0
2018-Feb-11 14:00N 25°08' E 121°45'0 0.0
2018-Feb-11 13:30N 25°08' E 121°45'0 0.0
2018-Feb-11 13:01N 25°08' E 121°45'0 0.0
2018-Feb-11 12:30N 25°08' E 121°45'0 0.0
2018-Feb-11 12:00N 25°08' E 121°45'0 0.0
2018-Feb-11 11:30N 25°08' E 121°45'0 0.0
2018-Feb-11 11:01N 25°08' E 121°45'0 0.0
2018-Feb-11 10:31N 25°08' E 121°45'0 0.0
2018-Feb-11 10:00N 25°08' E 121°45'0 0.0
2018-Feb-11 09:30N 25°08' E 121°45'  
Track history (hours):
 
Tides and Currents Weather Stations Pressure Air Temp Water Temp Dewpoint Dewpoint Depression Visibility Wind Speed Wind Dir Waves Ship Positions

Nordpanther

Last reported at 2018-Feb-21 09:00 UTC. Time now 2018-Feb-21 09:08 UTC.
Position N 25°09' E 121°45'.

Length 170 m; draft 8.6 m.

Type: Ship (hazmat cat A). MMSI: 212531000.

Date/timePositionNaut miles runAvg speedWind from/ knotsBaromVisibWave heightAir tempDewpointWater temp
2018-Feb-21 09:00N 25°09' E 121°45'0 0.0
2018-Feb-21 08:30N 25°09' E 121°45'0 0.0
2018-Feb-21 08:00N 25°09' E 121°45'0 0.0
2018-Feb-21 07:30N 25°09' E 121°45'0 0.0
2018-Feb-21 07:00N 25°09' E 121°45'0 0.0
2018-Feb-21 06:30N 25°09' E 121°45'0 0.0
2018-Feb-21 06:00N 25°09' E 121°45'0 0.0
2018-Feb-21 05:30N 25°09' E 121°45'0 0.0
2018-Feb-21 05:00N 25°09' E 121°45'0 0.0
2018-Feb-21 04:30N 25°09' E 121°45'0 0.0
2018-Feb-21 04:00N 25°09' E 121°45'0 0.0
2018-Feb-21 03:31N 25°09' E 121°45'0 0.0
2018-Feb-21 03:00N 25°09' E 121°45'0 0.0
2018-Feb-21 02:30N 25°09' E 121°45'0 0.0
2018-Feb-21 02:00N 25°09' E 121°45'0 0.0
2018-Feb-21 01:30N 25°09' E 121°45'0 0.0
2018-Feb-21 01:00N 25°09' E 121°45'0 0.0
2018-Feb-21 00:31N 25°09' E 121°45'0 0.0
2018-Feb-21 00:00N 25°09' E 121°45'0 0.0
2018-Feb-20 23:31N 25°09' E 121°45'0 0.0
2018-Feb-20 23:00N 25°09' E 121°45'1 2.5
2018-Feb-20 22:31N 25°10' E 121°45'4 7.6
2018-Feb-20 21:59N 25°14' E 121°46'511.1
2018-Feb-20 21:30N 25°16' E 121°52'712.8
2018-Feb-20 21:00N 25°19' E 121°58'82716.6
2018-Feb-18 19:16N 33°31' E 134°42'1318.2
2018-Feb-18 18:32N 33°43' E 134°49'218.4
2018-Feb-18 18:25N 33°44' E 134°50'818.4
2018-Feb-18 18:00N 33°51' E 134°53'918.4
2018-Feb-18 17:30N 34°01' E 134°54'918.4
2018-Feb-18 17:00N 34°10' E 134°57'714.5
2018-Feb-18 16:30N 34°17' E 134°58'816.5
2018-Feb-18 16:00N 34°24' E 135°03'918.2
2018-Feb-18 15:31N 34°30' E 135°11'816.6
2018-Feb-18 15:00N 34°37' E 135°16'3 6.1
2018-Feb-18 14:30N 34°40' E 135°14'0 0.2
2018-Feb-18 14:00N 34°40' E 135°14'0 0.0
2018-Feb-18 13:30N 34°40' E 135°14'0 0.0
2018-Feb-18 13:00N 34°40' E 135°14'0 0.0
2018-Feb-18 12:30N 34°40' E 135°14'0 0.0
2018-Feb-18 12:00N 34°40' E 135°14'0 0.0
2018-Feb-18 11:30N 34°40' E 135°14'0 0.0
2018-Feb-18 11:00N 34°40' E 135°14'0 0.0
2018-Feb-18 10:30N 34°40' E 135°14'0 0.0
2018-Feb-18 10:00N 34°40' E 135°14'0 0.0
2018-Feb-18 09:30N 34°40' E 135°14'0 0.0
2018-Feb-18 09:00N 34°40' E 135°14'0 0.0
2018-Feb-18 08:30N 34°40' E 135°14'0 0.0
2018-Feb-18 08:00N 34°40' E 135°14'1 2.7
2018-Feb-18 07:30N 34°39' E 135°15'510.8
2018-Feb-18 07:00N 34°39' E 135°22'2 3.5
2018-Feb-18 06:30N 34°39' E 135°24'0 0.0
2018-Feb-18 06:01N 34°39' E 135°24'0 0.0
2018-Feb-18 05:31N 34°39' E 135°24'0 0.0
2018-Feb-18 05:00N 34°39' E 135°24'0 0.0
2018-Feb-18 04:31N 34°39' E 135°24'0 0.0
2018-Feb-18 04:00N 34°39' E 135°24'0 0.0
2018-Feb-18 03:30N 34°39' E 135°24'0 0.0
2018-Feb-18 03:00N 34°39' E 135°24'0 0.0
2018-Feb-18 02:30N 34°39' E 135°24'0 0.0
2018-Feb-18 02:00N 34°39' E 135°24'0 0.0
2018-Feb-18 01:31N 34°39' E 135°24'0 0.0
2018-Feb-18 01:01N 34°39' E 135°24'0 1.0
2018-Feb-18 00:31N 34°38' E 135°24'510.1
2018-Feb-18 00:00N 34°35' E 135°19'816.7
2018-Feb-17 23:30N 34°29' E 135°12'917.9
2018-Feb-17 23:01N 34°23' E 135°05'816.8
2018-Feb-17 22:30N 34°15' E 134°59'612.4
2018-Feb-17 22:00N 34°09' E 135°00'510.4
2018-Feb-17 21:31N 34°04' E 134°59'814.9
2018-Feb-17 21:00N 33°57' E 134°59'715.0
2018-Feb-17 20:30N 33°49' E 135°01'816.4
2018-Feb-17 20:00N 33°43' E 135°08'916.4
2018-Feb-17 19:29N 33°37' E 135°15'1117.0
2018-Feb-17 18:49N 33°29' E 135°24'5015.7
2018-Feb-17 15:37N 33°47' E 136°21'819.0
2018-Feb-17 15:12N 33°52' E 136°28'518.8
2018-Feb-17 14:56N 33°55' E 136°33'1118.5
2018-Feb-17 14:21N 34°02' E 136°43'3117.9
2018-Feb-17 12:36N 34°29' E 137°02'217.1
2018-Feb-17 12:30N 34°31' E 137°02'813.6
2018-Feb-17 11:54N 34°37' E 136°54'818.6
2018-Feb-17 11:27N 34°43' E 136°48'818.8
2018-Feb-17 11:00N 34°51' E 136°46'816.5
2018-Feb-17 10:31N 34°59' E 136°49'4 8.1
2018-Feb-17 10:01N 35°03' E 136°50'0 0.2
2018-Feb-17 09:29N 35°03' E 136°50'0 0.0
2018-Feb-17 08:59N 35°03' E 136°50'0 0.0
2018-Feb-17 08:29N 35°03' E 136°50'0 0.0
2018-Feb-17 07:59N 35°03' E 136°50'0 0.0
2018-Feb-17 07:29N 35°03' E 136°50'0 0.0
2018-Feb-17 06:59N 35°03' E 136°50'0 0.0
2018-Feb-17 06:29N 35°03' E 136°50'0 0.0
2018-Feb-17 05:59N 35°03' E 136°50'0 0.0
2018-Feb-17 05:29N 35°03' E 136°50'0 0.0
2018-Feb-17 04:59N 35°03' E 136°50'0 0.0
2018-Feb-17 04:29N 35°03' E 136°50'0 0.0
2018-Feb-17 03:59N 35°03' E 136°50'0 0.0
2018-Feb-17 03:29N 35°03' E 136°50'0 0.0
2018-Feb-17 02:59N 35°03' E 136°50'0 0.0
2018-Feb-17 02:29N 35°03' E 136°50'0 0.0
2018-Feb-17 01:59N 35°03' E 136°50'0 0.0
2018-Feb-17 01:29N 35°03' E 136°50'0 0.0
2018-Feb-17 00:59N 35°03' E 136°50'0 0.1
2018-Feb-17 00:29N 35°03' E 136°50'0 0.1
2018-Feb-16 23:59N 35°03' E 136°50'0 0.0
2018-Feb-16 23:29N 35°03' E 136°50'0 0.0
2018-Feb-16 23:00N 35°03' E 136°50'1 2.9
2018-Feb-16 22:31N 35°01' E 136°50'611.7
2018-Feb-16 22:00N 34°56' E 136°47'815.7
2018-Feb-16 21:30N 34°49' E 136°47'917.7
2018-Feb-16 21:00N 34°41' E 136°53'816.8
2018-Feb-16 20:30N 34°35' E 136°59'611.2
2018-Feb-16 19:59N 34°32' E 137°06'5 9.5
2018-Feb-16 19:28N 34°29' E 137°10'1217.1
2018-Feb-16 18:48N 34°29' E 137°24'718.9
2018-Feb-16 18:24N 34°30' E 137°33'819.4
2018-Feb-16 17:59N 34°31' E 137°43'1418.4
2018-Feb-16 17:12N 34°31' E 138°00'517.3
2018-Feb-16 16:56N 34°31' E 138°06'717.2
2018-Feb-16 16:29N 34°31' E 138°15'814.8
2018-Feb-16 15:58N 34°34' E 138°24'817.6
2018-Feb-16 15:30N 34°42' E 138°27'817.3
2018-Feb-16 15:01N 34°50' E 138°31'917.0
2018-Feb-16 14:31N 34°58' E 138°34'5 9.1
2018-Feb-16 14:01N 35°02' E 138°31'1 1.1
2018-Feb-16 13:28N 35°02' E 138°30'0 0.0
2018-Feb-16 12:58N 35°02' E 138°30'0 0.0
2018-Feb-16 12:28N 35°02' E 138°30'0 0.0
2018-Feb-16 11:58N 35°02' E 138°30'0 0.0
2018-Feb-16 11:28N 35°02' E 138°30'0 0.0
2018-Feb-16 10:58N 35°02' E 138°30'0 0.0
2018-Feb-16 10:28N 35°02' E 138°30'0 0.0
2018-Feb-16 09:58N 35°02' E 138°30'0 0.0
2018-Feb-16 09:28N 35°02' E 138°30'0 0.0
2018-Feb-16 08:58N 35°02' E 138°30'0 0.0
2018-Feb-16 08:28N 35°02' E 138°30'0 0.0
2018-Feb-16 07:58N 35°02' E 138°30'0 0.0
2018-Feb-16 07:28N 35°02' E 138°30'1 2.0
2018-Feb-16 07:00N 35°02' E 138°31'3 5.9
2018-Feb-16 06:30N 34°60' E 138°34'5 9.5
2018-Feb-16 06:00N 34°55' E 138°34'510.9
2018-Feb-16 05:30N 34°50' E 138°36'511.0
2018-Feb-16 05:00N 34°44' E 138°38'611.2
2018-Feb-16 04:30N 34°39' E 138°39'612.2
2018-Feb-16 04:01N 34°33' E 138°42'812.7
2018-Feb-16 03:25N 34°32' E 138°51'3215.1
2018-Feb-16 01:19N 34°53' E 139°20'515.4
2018-Feb-16 00:59N 34°55' E 139°25'715.4
2018-Feb-16 00:30N 34°59' E 139°33'816.0
2018-Feb-16 00:00N 35°04' E 139°40'815.7
2018-Feb-15 23:31N 35°11' E 139°45'612.2
2018-Feb-15 23:00N 35°17' E 139°45'612.6
2018-Feb-15 22:30N 35°23' E 139°42'714.9
2018-Feb-15 22:00N 35°28' E 139°48'611.7
2018-Feb-15 21:29N 35°34' E 139°49'4 8.5
2018-Feb-15 21:00N 35°37' E 139°46'0 0.0
2018-Feb-15 06:08N 35°37' E 139°46'0 0.3
2018-Feb-15 05:58N 35°37' E 139°46'2 4.6
2018-Feb-15 05:30N 35°35' E 139°47'510.0
2018-Feb-15 05:00N 35°32' E 139°52'1 2.5
2018-Feb-15 04:30N 35°31' E 139°52'4 8.8
2018-Feb-15 04:01N 35°27' E 139°49'510.8
2018-Feb-15 03:31N 35°26' E 139°42'1 2.0
2018-Feb-15 03:00N 35°26' E 139°41'0 0.0
2018-Feb-15 02:30N 35°26' E 139°41'0 0.0
2018-Feb-15 02:00N 35°26' E 139°41'0 0.0
2018-Feb-15 01:30N 35°26' E 139°41'0 0.0
2018-Feb-15 01:00N 35°26' E 139°41'0 0.0
2018-Feb-15 00:30N 35°26' E 139°41'0 0.0
2018-Feb-15 00:00N 35°26' E 139°41'0 0.0
2018-Feb-14 23:30N 35°26' E 139°41'0 0.0
2018-Feb-14 23:01N 35°26' E 139°41'0 0.0
2018-Feb-14 22:30N 35°26' E 139°41'0 0.0
2018-Feb-14 22:00N 35°26' E 139°41'0 0.0
2018-Feb-14 21:30N 35°26' E 139°41'0 0.0
2018-Feb-14 21:00N 35°26' E 139°41'0 0.0
2018-Feb-14 20:30N 35°26' E 139°41'0 0.0
2018-Feb-14 20:00N 35°26' E 139°41'0 0.0
2018-Feb-14 19:30N 35°26' E 139°41'0 0.0
2018-Feb-14 19:00N 35°26' E 139°41'0 0.0
2018-Feb-14 18:30N 35°26' E 139°41'0 0.0
2018-Feb-14 18:00N 35°26' E 139°41'0 0.0
2018-Feb-14 17:30N 35°26' E 139°41'0 0.0
2018-Feb-14 17:00N 35°26' E 139°41'0 0.0
2018-Feb-14 16:30N 35°26' E 139°41'0 0.0
2018-Feb-14 16:00N 35°26' E 139°41'0 0.0
2018-Feb-14 15:30N 35°26' E 139°41'0 0.0
2018-Feb-14 15:00N 35°26' E 139°41'0 0.0
2018-Feb-14 14:30N 35°26' E 139°41'0 0.0
2018-Feb-14 14:00N 35°26' E 139°41'0 0.0
2018-Feb-14 13:30N 35°26' E 139°41'0 0.0
2018-Feb-14 13:00N 35°26' E 139°41'1 1.4
2018-Feb-14 12:31N 35°27' E 139°42'5 9.8
2018-Feb-14 12:00N 35°22' E 139°43'612.5
2018-Feb-14 11:30N 35°16' E 139°46'510.7
2018-Feb-14 11:00N 35°11' E 139°47'510.0
2018-Feb-14 10:30N 35°06' E 139°46'510.8
2018-Feb-14 10:00N 35°02' E 139°41'1715.7
2018-Feb-14 08:56N 34°53' E 139°24'817.1
2018-Feb-14 08:28N 34°47' E 139°17'1216.4
2018-Feb-14 07:43N 34°37' E 139°09'316.8
2018-Feb-14 07:30N 34°34' E 139°07'815.5
2018-Feb-14 07:00N 34°28' E 139°01'  
2018-Feb-11 19:13N 25°28' E 122°10'315.0
2018-Feb-11 19:00N 25°27' E 122°07'714.6
2018-Feb-11 18:30N 25°22' E 122°00'815.2
2018-Feb-11 18:00N 25°18' E 121°54'815.9
2018-Feb-11 17:30N 25°13' E 121°47'5 9.9
2018-Feb-11 17:00N 25°08' E 121°45'0 0.2
2018-Feb-11 16:29N 25°08' E 121°45'0 0.0
2018-Feb-11 15:59N 25°08' E 121°45'0 0.0
2018-Feb-11 15:30N 25°08' E 121°45'0 0.0
2018-Feb-11 15:00N 25°08' E 121°45'0 0.0
2018-Feb-11 14:29N 25°08' E 121°45'0 0.0
2018-Feb-11 14:00N 25°08' E 121°45'0 0.0
2018-Feb-11 13:30N 25°08' E 121°45'0 0.0
2018-Feb-11 13:01N 25°08' E 121°45'0 0.0
2018-Feb-11 12:30N 25°08' E 121°45'0 0.0
2018-Feb-11 12:00N 25°08' E 121°45'0 0.0
2018-Feb-11 11:30N 25°08' E 121°45'0 0.0
2018-Feb-11 11:01N 25°08' E 121°45'0 0.0
2018-Feb-11 10:31N 25°08' E 121°45'0 0.0
2018-Feb-11 10:00N 25°08' E 121°45'0 0.0
2018-Feb-11 09:30N 25°08' E 121°45'  

Dump ship's entire track history